sensor_id;sensor_type;location;lat;lon;timestamp;pressure;altitude;pressure_sealevel;temperature;humidity
56070;BME280;41944;52.078;-0.058;2022-07-17T00:00:27;102331.58;;;20.65;62.42
56070;BME280;41944;52.078;-0.058;2022-07-17T00:02:54;102333.42;;;20.99;60.79
56070;BME280;41944;52.078;-0.058;2022-07-17T00:05:21;102339.48;;;20.89;60.91
56070;BME280;41944;52.078;-0.058;2022-07-17T00:07:48;102338.72;;;20.78;61.09
56070;BME280;41944;52.078;-0.058;2022-07-17T00:10:15;102338.60;;;20.67;61.49
56070;BME280;41944;52.078;-0.058;2022-07-17T00:12:42;102340.65;;;20.66;61.39
56070;BME280;41944;52.078;-0.058;2022-07-17T00:15:10;102339.07;;;20.50;61.66
56070;BME280;41944;52.078;-0.058;2022-07-17T00:17:37;102338.06;;;20.43;61.88
56070;BME280;41944;52.078;-0.058;2022-07-17T00:20:05;102339.53;;;20.61;61.14
56070;BME280;41944;52.078;-0.058;2022-07-17T00:22:33;102339.11;;;20.64;61.03
56070;BME280;41944;52.078;-0.058;2022-07-17T00:25:00;102338.08;;;20.73;60.70
56070;BME280;41944;52.078;-0.058;2022-07-17T00:27:27;102343.58;;;20.76;60.38
56070;BME280;41944;52.078;-0.058;2022-07-17T00:29:53;102345.30;;;20.84;59.94
56070;BME280;41944;52.078;-0.058;2022-07-17T00:32:20;102347.47;;;20.57;60.77
56070;BME280;41944;52.078;-0.058;2022-07-17T00:34:47;102347.65;;;20.48;61.15
56070;BME280;41944;52.078;-0.058;2022-07-17T00:37:14;102349.06;;;20.66;60.54
56070;BME280;41944;52.078;-0.058;2022-07-17T00:39:41;102352.43;;;20.55;60.74
56070;BME280;41944;52.078;-0.058;2022-07-17T00:42:10;102348.99;;;20.49;60.67
56070;BME280;41944;52.078;-0.058;2022-07-17T00:44:37;102347.29;;;20.65;60.09
56070;BME280;41944;52.078;-0.058;2022-07-17T00:47:10;102346.31;;;20.49;60.49
56070;BME280;41944;52.078;-0.058;2022-07-17T00:49:38;102340.81;;;20.19;61.29
56070;BME280;41944;52.078;-0.058;2022-07-17T00:52:05;102339.03;;;19.93;62.04
56070;BME280;41944;52.078;-0.058;2022-07-17T00:54:34;102337.87;;;19.86;61.97
56070;BME280;41944;52.078;-0.058;2022-07-17T00:57:05;102335.57;;;19.63;62.77
56070;BME280;41944;52.078;-0.058;2022-07-17T00:59:33;102339.65;;;19.66;62.44
56070;BME280;41944;52.078;-0.058;2022-07-17T01:02:03;102339.34;;;19.43;63.22
56070;BME280;41944;52.078;-0.058;2022-07-17T01:04:31;102337.44;;;19.25;64.01
56070;BME280;41944;52.078;-0.058;2022-07-17T01:06:58;102336.23;;;19.24;64.04
56070;BME280;41944;52.078;-0.058;2022-07-17T01:09:26;102335.21;;;19.06;64.73
56070;BME280;41944;52.078;-0.058;2022-07-17T01:11:54;102340.60;;;19.13;64.37
56070;BME280;41944;52.078;-0.058;2022-07-17T01:14:22;102340.30;;;19.02;64.63
56070;BME280;41944;52.078;-0.058;2022-07-17T01:16:49;102341.19;;;19.04;64.82
56070;BME280;41944;52.078;-0.058;2022-07-17T01:19:18;102333.82;;;18.84;65.51
56070;BME280;41944;52.078;-0.058;2022-07-17T01:21:47;102335.68;;;18.86;65.26
56070;BME280;41944;52.078;-0.058;2022-07-17T01:24:15;102338.68;;;18.74;65.87
56070;BME280;41944;52.078;-0.058;2022-07-17T01:26:43;102341.70;;;18.80;65.57
56070;BME280;41944;52.078;-0.058;2022-07-17T01:29:12;102345.87;;;18.68;65.81
56070;BME280;41944;52.078;-0.058;2022-07-17T01:31:40;102346.36;;;18.79;65.40
56070;BME280;41944;52.078;-0.058;2022-07-17T01:34:09;102346.05;;;18.58;66.17
56070;BME280;41944;52.078;-0.058;2022-07-17T01:36:36;102347.05;;;18.43;66.51
56070;BME280;41944;52.078;-0.058;2022-07-17T01:39:04;102348.20;;;18.35;66.89
56070;BME280;41944;52.078;-0.058;2022-07-17T01:41:32;102347.91;;;18.32;66.83
56070;BME280;41944;52.078;-0.058;2022-07-17T01:43:58;102346.40;;;18.30;67.05
56070;BME280;41944;52.078;-0.058;2022-07-17T01:46:25;102350.53;;;18.35;66.87
56070;BME280;41944;52.078;-0.058;2022-07-17T01:48:52;102351.83;;;18.39;66.47
56070;BME280;41944;52.078;-0.058;2022-07-17T01:51:19;102353.99;;;18.24;67.08
56070;BME280;41944;52.078;-0.058;2022-07-17T01:53:46;102355.39;;;18.23;67.07
56070;BME280;41944;52.078;-0.058;2022-07-17T01:56:13;102350.01;;;18.23;67.17
56070;BME280;41944;52.078;-0.058;2022-07-17T01:58:40;102347.35;;;18.05;67.73
56070;BME280;41944;52.078;-0.058;2022-07-17T02:01:07;102345.60;;;18.04;67.92
56070;BME280;41944;52.078;-0.058;2022-07-17T02:03:33;102342.10;;;18.01;67.92
56070;BME280;41944;52.078;-0.058;2022-07-17T02:06:00;102341.19;;;17.95;67.84
56070;BME280;41944;52.078;-0.058;2022-07-17T02:08:27;102339.20;;;17.95;67.87
56070;BME280;41944;52.078;-0.058;2022-07-17T02:10:54;102345.70;;;17.95;67.98
56070;BME280;41944;52.078;-0.058;2022-07-17T02:13:21;102346.27;;;18.00;67.02
56070;BME280;41944;52.078;-0.058;2022-07-17T02:15:48;102346.70;;;17.85;67.14
56070;BME280;41944;52.078;-0.058;2022-07-17T02:18:15;102348.11;;;17.75;67.17
56070;BME280;41944;52.078;-0.058;2022-07-17T02:20:42;102347.13;;;17.85;66.07
56070;BME280;41944;52.078;-0.058;2022-07-17T02:23:09;102348.14;;;17.94;65.83
56070;BME280;41944;52.078;-0.058;2022-07-17T02:25:35;102349.46;;;18.06;65.43
56070;BME280;41944;52.078;-0.058;2022-07-17T02:28:03;102348.59;;;18.19;64.21
56070;BME280;41944;52.078;-0.058;2022-07-17T02:30:30;102348.23;;;18.35;63.52
56070;BME280;41944;52.078;-0.058;2022-07-17T02:32:57;102342.00;;;18.28;63.39
56070;BME280;41944;52.078;-0.058;2022-07-17T02:35:24;102336.61;;;18.50;62.52
56070;BME280;41944;52.078;-0.058;2022-07-17T02:37:51;102329.65;;;18.48;61.99
56070;BME280;41944;52.078;-0.058;2022-07-17T02:40:17;102325.82;;;18.47;62.05
56070;BME280;41944;52.078;-0.058;2022-07-17T02:42:45;102324.98;;;18.34;62.63
56070;BME280;41944;52.078;-0.058;2022-07-17T02:45:12;102321.81;;;18.45;62.06
56070;BME280;41944;52.078;-0.058;2022-07-17T02:47:39;102326.54;;;18.38;62.33
56070;BME280;41944;52.078;-0.058;2022-07-17T02:50:09;102332.08;;;18.35;62.35
56070;BME280;41944;52.078;-0.058;2022-07-17T02:52:36;102333.16;;;18.74;62.04
56070;BME280;41944;52.078;-0.058;2022-07-17T02:55:04;102336.92;;;18.92;60.71
56070;BME280;41944;52.078;-0.058;2022-07-17T02:57:31;102340.81;;;18.93;60.08
56070;BME280;41944;52.078;-0.058;2022-07-17T02:59:58;102341.97;;;18.84;60.32
56070;BME280;41944;52.078;-0.058;2022-07-17T03:02:26;102339.64;;;18.65;60.84
56070;BME280;41944;52.078;-0.058;2022-07-17T03:04:53;102342.80;;;18.57;60.85
56070;BME280;41944;52.078;-0.058;2022-07-17T03:07:20;102340.83;;;18.70;60.21
56070;BME280;41944;52.078;-0.058;2022-07-17T03:09:46;102338.16;;;18.71;60.08
56070;BME280;41944;52.078;-0.058;2022-07-17T03:12:13;102339.34;;;18.61;60.42
56070;BME280;41944;52.078;-0.058;2022-07-17T03:14:40;102341.86;;;18.67;59.84
56070;BME280;41944;52.078;-0.058;2022-07-17T03:17:07;102341.21;;;18.65;59.91
56070;BME280;41944;52.078;-0.058;2022-07-17T03:19:35;102337.38;;;18.50;60.32
56070;BME280;41944;52.078;-0.058;2022-07-17T03:22:02;102339.95;;;18.43;60.74
56070;BME280;41944;52.078;-0.058;2022-07-17T03:24:29;102340.53;;;18.37;60.86
56070;BME280;41944;52.078;-0.058;2022-07-17T03:26:57;102343.75;;;18.61;60.36
56070;BME280;41944;52.078;-0.058;2022-07-17T03:29:24;102345.50;;;19.08;59.61
56070;BME280;41944;52.078;-0.058;2022-07-17T03:31:51;102349.14;;;19.06;58.77
56070;BME280;41944;52.078;-0.058;2022-07-17T03:34:18;102346.35;;;18.94;58.98
56070;BME280;41944;52.078;-0.058;2022-07-17T03:36:46;102343.90;;;19.09;59.13
56070;BME280;41944;52.078;-0.058;2022-07-17T03:39:13;102339.80;;;19.26;58.87
56070;BME280;41944;52.078;-0.058;2022-07-17T03:41:40;102328.16;;;19.48;57.10
56070;BME280;41944;52.078;-0.058;2022-07-17T03:44:06;102327.34;;;19.19;57.69
56070;BME280;41944;52.078;-0.058;2022-07-17T03:46:33;102331.78;;;19.17;57.79
56070;BME280;41944;52.078;-0.058;2022-07-17T03:49:00;102328.28;;;18.95;58.63
56070;BME280;41944;52.078;-0.058;2022-07-17T03:51:27;102324.24;;;18.79;59.30
56070;BME280;41944;52.078;-0.058;2022-07-17T03:53:54;102326.30;;;18.86;58.97
56070;BME280;41944;52.078;-0.058;2022-07-17T03:56:21;102321.34;;;19.02;58.52
56070;BME280;41944;52.078;-0.058;2022-07-17T03:58:48;102323.69;;;18.88;58.93
56070;BME280;41944;52.078;-0.058;2022-07-17T04:01:15;102325.82;;;18.77;59.14
56070;BME280;41944;52.078;-0.058;2022-07-17T04:03:42;102322.84;;;18.62;59.32
56070;BME280;41944;52.078;-0.058;2022-07-17T04:06:09;102324.59;;;18.87;58.43
56070;BME280;41944;52.078;-0.058;2022-07-17T04:08:36;102317.71;;;18.75;58.41
56070;BME280;41944;52.078;-0.058;2022-07-17T04:11:03;102316.95;;;18.48;59.16
56070;BME280;41944;52.078;-0.058;2022-07-17T04:13:30;102322.81;;;18.42;59.06
56070;BME280;41944;52.078;-0.058;2022-07-17T04:15:58;102321.03;;;18.30;59.17
56070;BME280;41944;52.078;-0.058;2022-07-17T04:18:27;102315.57;;;18.47;58.69
56070;BME280;41944;52.078;-0.058;2022-07-17T04:20:58;102313.99;;;18.38;59.34
56070;BME280;41944;52.078;-0.058;2022-07-17T04:23:25;102311.71;;;18.41;59.29
56070;BME280;41944;52.078;-0.058;2022-07-17T04:25:53;102316.19;;;18.20;60.05
56070;BME280;41944;52.078;-0.058;2022-07-17T04:28:21;102318.78;;;18.11;60.33
56070;BME280;41944;52.078;-0.058;2022-07-17T04:30:48;102317.35;;;18.20;59.58
56070;BME280;41944;52.078;-0.058;2022-07-17T04:33:17;102322.12;;;18.44;58.93
56070;BME280;41944;52.078;-0.058;2022-07-17T04:35:44;102326.69;;;18.49;58.72
56070;BME280;41944;52.078;-0.058;2022-07-17T04:38:11;102325.75;;;18.35;60.18
56070;BME280;41944;52.078;-0.058;2022-07-17T04:40:38;102324.35;;;18.23;60.77
56070;BME280;41944;52.078;-0.058;2022-07-17T04:43:05;102324.28;;;18.29;60.56
56070;BME280;41944;52.078;-0.058;2022-07-17T04:45:34;102325.18;;;18.36;60.34
56070;BME280;41944;52.078;-0.058;2022-07-17T04:48:01;102327.83;;;18.50;59.55
56070;BME280;41944;52.078;-0.058;2022-07-17T04:50:28;102321.49;;;18.50;59.77
56070;BME280;41944;52.078;-0.058;2022-07-17T04:52:55;102320.42;;;18.50;59.95
56070;BME280;41944;52.078;-0.058;2022-07-17T04:55:22;102324.54;;;18.53;59.40
56070;BME280;41944;52.078;-0.058;2022-07-17T04:57:50;102326.66;;;18.56;59.51
56070;BME280;41944;52.078;-0.058;2022-07-17T05:00:17;102326.74;;;18.69;59.52
56070;BME280;41944;52.078;-0.058;2022-07-17T05:02:44;102326.56;;;18.86;58.95
56070;BME280;41944;52.078;-0.058;2022-07-17T05:05:11;102325.42;;;18.86;58.85
56070;BME280;41944;52.078;-0.058;2022-07-17T05:07:38;102322.12;;;18.76;60.19
56070;BME280;41944;52.078;-0.058;2022-07-17T05:10:06;102320.76;;;18.70;60.96
56070;BME280;41944;52.078;-0.058;2022-07-17T05:12:33;102326.55;;;18.68;61.14
56070;BME280;41944;52.078;-0.058;2022-07-17T05:15:01;102316.48;;;18.62;61.06
56070;BME280;41944;52.078;-0.058;2022-07-17T05:17:28;102319.53;;;18.72;60.89
56070;BME280;41944;52.078;-0.058;2022-07-17T05:19:55;102320.42;;;18.55;61.28
56070;BME280;41944;52.078;-0.058;2022-07-17T05:22:21;102318.07;;;18.64;61.67
56070;BME280;41944;52.078;-0.058;2022-07-17T05:24:48;102314.63;;;18.81;61.52
56070;BME280;41944;52.078;-0.058;2022-07-17T05:27:15;102312.55;;;18.64;61.92
56070;BME280;41944;52.078;-0.058;2022-07-17T05:29:42;102314.41;;;18.71;60.42
56070;BME280;41944;52.078;-0.058;2022-07-17T05:32:09;102314.57;;;18.70;60.80
56070;BME280;41944;52.078;-0.058;2022-07-17T05:34:36;102314.23;;;18.81;60.09
56070;BME280;41944;52.078;-0.058;2022-07-17T05:37:03;102312.71;;;18.86;58.83
56070;BME280;41944;52.078;-0.058;2022-07-17T05:39:30;102314.85;;;19.05;58.83
56070;BME280;41944;52.078;-0.058;2022-07-17T05:41:56;102317.77;;;19.16;59.18
56070;BME280;41944;52.078;-0.058;2022-07-17T05:44:23;102321.82;;;19.11;58.93
56070;BME280;41944;52.078;-0.058;2022-07-17T05:46:50;102319.77;;;19.30;59.39
56070;BME280;41944;52.078;-0.058;2022-07-17T05:49:17;102328.67;;;19.19;59.82
56070;BME280;41944;52.078;-0.058;2022-07-17T05:51:44;102329.31;;;19.36;59.50
56070;BME280;41944;52.078;-0.058;2022-07-17T05:54:12;102331.52;;;19.26;60.12
56070;BME280;41944;52.078;-0.058;2022-07-17T05:56:39;102330.08;;;19.45;59.64
56070;BME280;41944;52.078;-0.058;2022-07-17T05:59:05;102336.72;;;19.37;60.09
56070;BME280;41944;52.078;-0.058;2022-07-17T06:01:32;102334.55;;;19.52;59.20
56070;BME280;41944;52.078;-0.058;2022-07-17T06:03:59;102334.45;;;19.45;60.23
56070;BME280;41944;52.078;-0.058;2022-07-17T06:06:26;102338.96;;;19.61;59.63
56070;BME280;41944;52.078;-0.058;2022-07-17T06:08:53;102338.56;;;19.47;59.75
56070;BME280;41944;52.078;-0.058;2022-07-17T06:11:20;102338.29;;;19.67;59.34
56070;BME280;41944;52.078;-0.058;2022-07-17T06:13:47;102336.02;;;19.88;58.10
56070;BME280;41944;52.078;-0.058;2022-07-17T06:16:14;102337.21;;;19.65;58.75
56070;BME280;41944;52.078;-0.058;2022-07-17T06:18:40;102340.39;;;19.94;58.16
56070;BME280;41944;52.078;-0.058;2022-07-17T06:21:08;102339.92;;;19.97;58.71
56070;BME280;41944;52.078;-0.058;2022-07-17T06:23:35;102343.02;;;20.20;57.32
56070;BME280;41944;52.078;-0.058;2022-07-17T06:26:02;102344.99;;;20.20;56.25
56070;BME280;41944;52.078;-0.058;2022-07-17T06:28:29;102349.70;;;20.41;54.52
56070;BME280;41944;52.078;-0.058;2022-07-17T06:30:55;102352.04;;;20.65;53.88
56070;BME280;41944;52.078;-0.058;2022-07-17T06:33:22;102350.54;;;20.80;53.51
56070;BME280;41944;52.078;-0.058;2022-07-17T06:35:49;102356.29;;;21.01;53.50
56070;BME280;41944;52.078;-0.058;2022-07-17T06:38:16;102352.86;;;21.37;52.03
56070;BME280;41944;52.078;-0.058;2022-07-17T06:40:43;102353.90;;;21.34;51.97
56070;BME280;41944;52.078;-0.058;2022-07-17T06:43:11;102349.76;;;21.75;51.44
56070;BME280;41944;52.078;-0.058;2022-07-17T06:45:38;102356.29;;;21.85;50.95
56070;BME280;41944;52.078;-0.058;2022-07-17T06:48:05;102358.72;;;21.98;50.73
56070;BME280;41944;52.078;-0.058;2022-07-17T06:50:32;102358.22;;;22.11;50.60
56070;BME280;41944;52.078;-0.058;2022-07-17T06:52:59;102348.95;;;22.27;50.48
56070;BME280;41944;52.078;-0.058;2022-07-17T06:55:26;102346.32;;;22.55;49.29
56070;BME280;41944;52.078;-0.058;2022-07-17T06:57:54;102347.85;;;22.76;48.26
56070;BME280;41944;52.078;-0.058;2022-07-17T07:00:20;102349.54;;;23.03;47.60
56070;BME280;41944;52.078;-0.058;2022-07-17T07:02:47;102350.70;;;23.08;47.11
56070;BME280;41944;52.078;-0.058;2022-07-17T07:05:14;102351.25;;;23.13;46.77
56070;BME280;41944;52.078;-0.058;2022-07-17T07:07:41;102350.86;;;23.27;46.62
56070;BME280;41944;52.078;-0.058;2022-07-17T07:10:08;102351.46;;;23.30;46.84
56070;BME280;41944;52.078;-0.058;2022-07-17T07:12:36;102352.58;;;23.37;46.72
56070;BME280;41944;52.078;-0.058;2022-07-17T07:15:03;102354.15;;;23.48;46.22
56070;BME280;41944;52.078;-0.058;2022-07-17T07:17:30;102348.52;;;23.65;45.59
56070;BME280;41944;52.078;-0.058;2022-07-17T07:19:57;102344.21;;;23.66;45.49
56070;BME280;41944;52.078;-0.058;2022-07-17T07:22:24;102346.87;;;23.77;45.05
56070;BME280;41944;52.078;-0.058;2022-07-17T07:24:51;102348.62;;;23.74;44.75
56070;BME280;41944;52.078;-0.058;2022-07-17T07:27:18;102352.99;;;24.00;44.50
56070;BME280;41944;52.078;-0.058;2022-07-17T07:29:45;102354.75;;;23.94;44.22
56070;BME280;41944;52.078;-0.058;2022-07-17T07:32:12;102352.30;;;24.02;44.34
56070;BME280;41944;52.078;-0.058;2022-07-17T07:34:39;102347.02;;;24.15;43.86
56070;BME280;41944;52.078;-0.058;2022-07-17T07:37:06;102339.70;;;24.16;44.61
56070;BME280;41944;52.078;-0.058;2022-07-17T07:39:33;102332.33;;;24.22;44.19
56070;BME280;41944;52.078;-0.058;2022-07-17T07:42:01;102332.22;;;24.28;43.96
56070;BME280;41944;52.078;-0.058;2022-07-17T07:44:27;102335.20;;;24.41;43.78
56070;BME280;41944;52.078;-0.058;2022-07-17T07:46:54;102330.62;;;24.45;43.75
56070;BME280;41944;52.078;-0.058;2022-07-17T07:49:21;102327.03;;;24.57;43.79
56070;BME280;41944;52.078;-0.058;2022-07-17T07:51:48;102330.17;;;24.60;43.47
56070;BME280;41944;52.078;-0.058;2022-07-17T07:54:15;102331.49;;;24.67;44.10
56070;BME280;41944;52.078;-0.058;2022-07-17T07:56:42;102331.04;;;24.89;42.96
56070;BME280;41944;52.078;-0.058;2022-07-17T07:59:09;102335.05;;;25.03;42.55
56070;BME280;41944;52.078;-0.058;2022-07-17T08:01:36;102336.78;;;25.13;42.56
56070;BME280;41944;52.078;-0.058;2022-07-17T08:04:03;102335.21;;;25.23;41.69
56070;BME280;41944;52.078;-0.058;2022-07-17T08:06:30;102337.69;;;25.19;41.84
56070;BME280;41944;52.078;-0.058;2022-07-17T08:08:58;102339.51;;;25.37;41.78
56070;BME280;41944;52.078;-0.058;2022-07-17T08:11:25;102343.13;;;25.50;41.11
56070;BME280;41944;52.078;-0.058;2022-07-17T08:13:52;102343.28;;;25.55;41.14
56070;BME280;41944;52.078;-0.058;2022-07-17T08:16:18;102335.81;;;25.73;40.41
56070;BME280;41944;52.078;-0.058;2022-07-17T08:18:45;102337.28;;;25.90;40.09
56070;BME280;41944;52.078;-0.058;2022-07-17T08:21:13;102336.35;;;25.96;39.54
56070;BME280;41944;52.078;-0.058;2022-07-17T08:23:40;102332.26;;;26.03;38.80
56070;BME280;41944;52.078;-0.058;2022-07-17T08:26:07;102331.57;;;26.08;39.35
56070;BME280;41944;52.078;-0.058;2022-07-17T08:28:34;102328.01;;;26.07;39.96
56070;BME280;41944;52.078;-0.058;2022-07-17T08:31:00;102325.80;;;26.30;39.33
56070;BME280;41944;52.078;-0.058;2022-07-17T08:33:27;102328.37;;;26.45;38.28
56070;BME280;41944;52.078;-0.058;2022-07-17T08:35:54;102332.66;;;26.50;37.76
56070;BME280;41944;52.078;-0.058;2022-07-17T08:38:21;102332.14;;;26.46;38.01
56070;BME280;41944;52.078;-0.058;2022-07-17T08:40:49;102331.87;;;26.62;36.86
56070;BME280;41944;52.078;-0.058;2022-07-17T08:43:17;102330.18;;;26.66;37.00
56070;BME280;41944;52.078;-0.058;2022-07-17T08:45:44;102330.49;;;26.76;37.45
56070;BME280;41944;52.078;-0.058;2022-07-17T08:48:14;102330.30;;;26.85;36.98
56070;BME280;41944;52.078;-0.058;2022-07-17T08:50:41;102332.56;;;26.90;36.44
56070;BME280;41944;52.078;-0.058;2022-07-17T08:53:09;102327.58;;;27.01;36.06
56070;BME280;41944;52.078;-0.058;2022-07-17T08:55:36;102325.89;;;27.00;35.30
56070;BME280;41944;52.078;-0.058;2022-07-17T08:58:03;102325.06;;;27.05;35.06
56070;BME280;41944;52.078;-0.058;2022-07-17T09:00:31;102319.99;;;27.16;34.83
56070;BME280;41944;52.078;-0.058;2022-07-17T09:03:00;102319.64;;;27.25;34.65
56070;BME280;41944;52.078;-0.058;2022-07-17T09:05:29;102319.57;;;27.34;34.94
56070;BME280;41944;52.078;-0.058;2022-07-17T09:07:57;102323.49;;;27.29;35.25
56070;BME280;41944;52.078;-0.058;2022-07-17T09:10:34;102331.12;;;27.41;35.13
56070;BME280;41944;52.078;-0.058;2022-07-17T09:13:13;102330.31;;;27.43;34.83
56070;BME280;41944;52.078;-0.058;2022-07-17T09:15:40;102331.68;;;27.59;35.58
56070;BME280;41944;52.078;-0.058;2022-07-17T09:18:07;102326.80;;;27.71;34.68
56070;BME280;41944;52.078;-0.058;2022-07-17T09:20:34;102328.14;;;27.72;34.47
56070;BME280;41944;52.078;-0.058;2022-07-17T09:23:05;102327.35;;;27.79;34.37
56070;BME280;41944;52.078;-0.058;2022-07-17T09:25:35;102321.18;;;27.93;34.17
56070;BME280;41944;52.078;-0.058;2022-07-17T09:28:04;102317.80;;;27.97;34.51
56070;BME280;41944;52.078;-0.058;2022-07-17T09:30:32;102317.58;;;27.90;33.18
56070;BME280;41944;52.078;-0.058;2022-07-17T09:32:59;102314.41;;;27.91;34.00
56070;BME280;41944;52.078;-0.058;2022-07-17T09:35:26;102313.05;;;27.88;34.31
56070;BME280;41944;52.078;-0.058;2022-07-17T09:37:53;102307.63;;;27.84;33.49
56070;BME280;41944;52.078;-0.058;2022-07-17T09:40:22;102308.51;;;27.85;34.29
56070;BME280;41944;52.078;-0.058;2022-07-17T09:42:55;102311.63;;;27.90;34.44
56070;BME280;41944;52.078;-0.058;2022-07-17T09:45:22;102311.63;;;27.96;32.82
56070;BME280;41944;52.078;-0.058;2022-07-17T09:47:49;102311.88;;;28.09;33.13
56070;BME280;41944;52.078;-0.058;2022-07-17T09:50:20;102310.30;;;28.20;33.21
56070;BME280;41944;52.078;-0.058;2022-07-17T09:52:49;102314.55;;;28.28;33.77
56070;BME280;41944;52.078;-0.058;2022-07-17T09:55:20;102319.91;;;28.26;32.86
56070;BME280;41944;52.078;-0.058;2022-07-17T09:57:48;102317.92;;;28.37;31.74
56070;BME280;41944;52.078;-0.058;2022-07-17T10:00:15;102319.21;;;28.41;32.56
56070;BME280;41944;52.078;-0.058;2022-07-17T10:02:43;102317.91;;;28.49;32.67
56070;BME280;41944;52.078;-0.058;2022-07-17T10:05:12;102316.81;;;28.62;31.97
56070;BME280;41944;52.078;-0.058;2022-07-17T10:07:39;102314.25;;;28.80;32.31
56070;BME280;41944;52.078;-0.058;2022-07-17T10:10:07;102313.41;;;28.88;32.00
56070;BME280;41944;52.078;-0.058;2022-07-17T10:12:36;102311.42;;;28.95;32.09
56070;BME280;41944;52.078;-0.058;2022-07-17T10:15:06;102315.38;;;28.95;30.06
56070;BME280;41944;52.078;-0.058;2022-07-17T10:17:34;102318.49;;;29.02;30.84
56070;BME280;41944;52.078;-0.058;2022-07-17T10:20:02;102315.26;;;29.14;31.78
56070;BME280;41944;52.078;-0.058;2022-07-17T10:22:41;102311.65;;;29.11;30.57
56070;BME280;41944;52.078;-0.058;2022-07-17T10:25:12;102308.30;;;29.12;30.83
56070;BME280;41944;52.078;-0.058;2022-07-17T10:27:46;102303.48;;;29.35;31.57
56070;BME280;41944;52.078;-0.058;2022-07-17T10:30:20;102304.91;;;29.27;30.49
56070;BME280;41944;52.078;-0.058;2022-07-17T10:32:54;102306.22;;;29.37;32.02
56070;BME280;41944;52.078;-0.058;2022-07-17T10:35:21;102304.69;;;29.45;29.17
56070;BME280;41944;52.078;-0.058;2022-07-17T10:37:49;102296.55;;;29.58;29.43
56070;BME280;41944;52.078;-0.058;2022-07-17T10:40:18;102291.38;;;29.79;28.70
56070;BME280;41944;52.078;-0.058;2022-07-17T10:42:51;102288.47;;;29.93;28.84
56070;BME280;41944;52.078;-0.058;2022-07-17T10:45:20;102294.07;;;30.03;28.86
56070;BME280;41944;52.078;-0.058;2022-07-17T10:47:51;102289.40;;;29.94;28.48
56070;BME280;41944;52.078;-0.058;2022-07-17T10:50:21;102282.90;;;30.01;29.44
56070;BME280;41944;52.078;-0.058;2022-07-17T10:52:59;102276.30;;;30.16;28.15
56070;BME280;41944;52.078;-0.058;2022-07-17T10:55:27;102277.86;;;30.24;28.67
56070;BME280;41944;52.078;-0.058;2022-07-17T10:57:55;102276.62;;;30.20;28.01
56070;BME280;41944;52.078;-0.058;2022-07-17T11:00:24;102276.42;;;30.26;28.28
56070;BME280;41944;52.078;-0.058;2022-07-17T11:02:51;102268.61;;;30.31;29.25
56070;BME280;41944;52.078;-0.058;2022-07-17T11:05:18;102266.62;;;30.40;27.53
56070;BME280;41944;52.078;-0.058;2022-07-17T11:07:50;102265.27;;;30.59;27.27
56070;BME280;41944;52.078;-0.058;2022-07-17T11:10:17;102260.95;;;30.65;27.88
56070;BME280;41944;52.078;-0.058;2022-07-17T11:12:44;102254.03;;;30.73;27.22
56070;BME280;41944;52.078;-0.058;2022-07-17T11:15:12;102251.52;;;30.67;28.19
56070;BME280;41944;52.078;-0.058;2022-07-17T11:17:43;102249.28;;;30.80;27.96
56070;BME280;41944;52.078;-0.058;2022-07-17T11:20:10;102249.10;;;30.75;27.89
56070;BME280;41944;52.078;-0.058;2022-07-17T11:22:37;102243.92;;;30.89;26.86
56070;BME280;41944;52.078;-0.058;2022-07-17T11:25:05;102240.46;;;30.95;27.41
56070;BME280;41944;52.078;-0.058;2022-07-17T11:27:34;102243.15;;;30.99;28.24
56070;BME280;41944;52.078;-0.058;2022-07-17T11:30:02;102235.87;;;30.89;27.88
56070;BME280;41944;52.078;-0.058;2022-07-17T11:32:33;102228.18;;;30.56;27.93
56070;BME280;41944;52.078;-0.058;2022-07-17T11:35:00;102225.35;;;30.59;28.68
56070;BME280;41944;52.078;-0.058;2022-07-17T11:37:29;102223.21;;;30.71;28.05
56070;BME280;41944;52.078;-0.058;2022-07-17T11:39:57;102219.66;;;30.90;27.59
56070;BME280;41944;52.078;-0.058;2022-07-17T11:42:24;102215.69;;;30.97;27.55
56070;BME280;41944;52.078;-0.058;2022-07-17T11:44:53;102215.35;;;31.10;27.51
56070;BME280;41944;52.078;-0.058;2022-07-17T11:47:23;102215.28;;;31.18;27.36
56070;BME280;41944;52.078;-0.058;2022-07-17T11:49:50;102210.80;;;31.34;26.23
56070;BME280;41944;52.078;-0.058;2022-07-17T11:52:19;102207.73;;;31.43;27.35
56070;BME280;41944;52.078;-0.058;2022-07-17T11:54:48;102201.16;;;31.52;26.96
56070;BME280;41944;52.078;-0.058;2022-07-17T11:57:17;102197.21;;;31.59;27.87
56070;BME280;41944;52.078;-0.058;2022-07-17T11:59:46;102196.77;;;31.63;27.65
56070;BME280;41944;52.078;-0.058;2022-07-17T12:02:15;102195.32;;;31.82;26.80
56070;BME280;41944;52.078;-0.058;2022-07-17T12:04:51;102198.09;;;31.69;27.40
56070;BME280;41944;52.078;-0.058;2022-07-17T12:07:19;102197.50;;;31.81;26.47
56070;BME280;41944;52.078;-0.058;2022-07-17T12:09:47;102189.71;;;31.73;26.95
56070;BME280;41944;52.078;-0.058;2022-07-17T12:12:20;102191.55;;;31.77;27.30
56070;BME280;41944;52.078;-0.058;2022-07-17T12:14:50;102199.66;;;31.67;26.47
56070;BME280;41944;52.078;-0.058;2022-07-17T12:17:17;102198.81;;;31.47;26.48
56070;BME280;41944;52.078;-0.058;2022-07-17T12:19:45;102197.95;;;31.47;26.49
56070;BME280;41944;52.078;-0.058;2022-07-17T12:22:12;102196.80;;;31.65;26.84
56070;BME280;41944;52.078;-0.058;2022-07-17T12:24:42;102191.54;;;31.79;26.11
56070;BME280;41944;52.078;-0.058;2022-07-17T12:27:11;102189.99;;;31.84;26.31
56070;BME280;41944;52.078;-0.058;2022-07-17T12:29:39;102191.23;;;32.00;27.44
56070;BME280;41944;52.078;-0.058;2022-07-17T12:32:08;102192.42;;;31.96;25.59
56070;BME280;41944;52.078;-0.058;2022-07-17T12:34:37;102185.29;;;32.19;25.41
56070;BME280;41944;52.078;-0.058;2022-07-17T12:37:04;102179.20;;;32.29;24.84
56070;BME280;41944;52.078;-0.058;2022-07-17T12:39:31;102182.84;;;32.45;25.50
56070;BME280;41944;52.078;-0.058;2022-07-17T12:41:58;102182.70;;;32.54;25.30